| time (UTC) | temp F | wind direction | speed knots | gust knots | rain 1hr in | rain 24hr in | rain mn in | humidity % | barometer mb |
| 20260505153045 | 36 | 226 | 1.7 | 4.3 | 0.01 | 0.20 | 0.09 | 76 | 1008.5 |
| 20260505151642 | 35 | 216 | 0.9 | 3.5 | 0.01 | 0.20 | 0.09 | 76 | 1008.3 |
| 20260505124514 | 38 | 220 | 4.3 | 9.6 | 0.04 | 0.17 | 0.06 | 74 | 1005.9 |
| 20260505123011 | 38 | 158 | 0.9 | 5.2 | 0.03 | 0.16 | 0.05 | 73 | 1005.5 |
| 20260505121509 | 39 | 205 | 1.7 | 6.1 | 0.02 | 0.14 | 0.03 | 73 | 1005.6 |
| 20260505120012 | 39 | 112 | 1.7 | 7.0 | 0.02 | 0.13 | 0.02 | 73 | 1005.3 |
| 20260505114504 | 41 | 177 | 1.7 | 5.2 | 0.02 | 0.13 | 0.02 | 73 | 1005.3 |
| 20260505113112 | 42 | 126 | 3.5 | 7.8 | 0.02 | 0.13 | 0.02 | 73 | 1005.1 |
| 20260505111554 | 42 | 142 | 0.9 | 5.2 | 0.01 | 0.12 | 0.01 | 73 | 1004.9 |
| 20260505101546 | 44 | 221 | 0.0 | 1.7 | 0.00 | 0.11 | 0.00 | 72 | 1004.3 |
| 20260505100050 | 43 | 221 | 0.0 | 1.7 | 0.00 | 0.11 | 0.00 | 72 | 1004.2 |
| 20260505094545 | 43 | 244 | 0.0 | 1.7 | 0.00 | 0.11 | 0.00 | 71 | 1004.0 |
| 20260505093046 | 44 | 244 | 0.0 | 1.7 | 0.00 | 0.11 | 0.00 | 71 | 1004.3 |
| 20260505091559 | 44 | 244 | 0.0 | 3.5 | 0.00 | 0.11 | 0.00 | 71 | 1004.3 |
| 20260505090043 | 44 | 244 | 0.0 | 2.6 | 0.00 | 0.11 | 0.00 | 71 | 1004.3 |
| 20260505084537 | 44 | 244 | 0.9 | 4.3 | 0.00 | 0.11 | 0.00 | 72 | 1004.1 |
| 20260505083035 | 45 | 240 | 0.0 | 1.7 | 0.00 | 0.11 | 0.00 | 72 | 1004.1 |
| 20260505081538 | 45 | 154 | 0.9 | 2.6 | 0.00 | 0.11 | 0.00 | 72 | 1004.6 |
| 20260505080035 | 45 | 153 | 0.0 | 0.0 | 0.00 | 0.11 | 0.00 | 71 | 1004.9 |
| 20260505074529 | 45 | 154 | 0.0 | 1.7 | 0.00 | 0.11 | 0.00 | 71 | 1004.9 |
| 20260505073030 | 45 | 154 | 0.0 | 1.7 | 0.00 | 0.11 | 0.00 | 71 | 1005.3 |
| 20260505071526 | 45 | 154 | 0.9 | 4.3 | 0.00 | 0.11 | 0.00 | 71 | 1005.2 |
| 20260505070024 | 45 | 153 | 0.0 | 2.6 | 0.00 | 0.11 | 0.00 | 71 | 1005.6 |
| 20260505064521 | 45 | 153 | 0.9 | 1.7 | 0.01 | 0.11 | 0.00 | 71 | 1005.6 |
| 20260505063021 | 45 | 153 | 0.0 | 0.0 | 0.01 | 0.11 | 0.00 | 70 | 1005.6 |
| 20260505061521 | 45 | 153 | 0.0 | 0.0 | 0.03 | 0.11 | 0.00 | 70 | 1005.6 |
| 20260505060017 | 46 | 153 | 0.0 | 0.0 | 0.05 | 0.11 | 0.11 | 70 | 1005.7 |
| 20260505054513 | 46 | 153 | 0.0 | 1.7 | 0.04 | 0.10 | 0.10 | 70 | 1005.6 |
| 20260505053009 | 46 | 153 | 0.0 | 2.6 | 0.05 | 0.10 | 0.10 | 69 | 1005.6 |
| 20260505051508 | 46 | 153 | 0.0 | 1.7 | 0.04 | 0.08 | 0.08 | 68 | 1005.8 |
| 20260505041550 | 49 | 134 | 0.0 | 1.7 | 0.04 | 0.04 | 0.04 | 62 | 1005.7 |
| 20260505040041 | 50 | 134 | 0.0 | 2.6 | 0.03 | 0.03 | 0.03 | 59 | 1005.7 |
| 20260505034537 | 51 | 79 | 0.9 | 5.2 | 0.01 | 0.01 | 0.01 | 54 | 1005.6 |
| 20260505033032 | 51 | 213 | 0.0 | 1.7 | 0.00 | 0.00 | 0.00 | 45 | 1005.1 |
| 20260505031524 | 52 | 214 | 0.0 | 0.0 | 0.00 | 0.00 | 0.00 | 44 | 1004.8 |
| 20260505030020 | 52 | 214 | 0.0 | 0.0 | 0.00 | 0.00 | 0.00 | 43 | 1004.5 |
| 20260505024515 | 52 | 214 | 0.0 | 1.7 | 0.00 | 0.00 | 0.00 | 44 | 1004.3 |
| 20260505023011 | 52 | 214 | 0.9 | 4.3 | 0.00 | 0.00 | 0.00 | 44 | 1004.0 |
| 20260505021506 | 53 | 186 | 0.9 | 3.5 | 0.00 | 0.00 | 0.00 | 41 | 1003.9 |
| 20260505020006 | 54 | 134 | 0.0 | 1.7 | 0.00 | 0.00 | 0.00 | 42 | 1003.9 |
| 20260505014558 | 54 | 153 | 0.9 | 4.3 | 0.00 | 0.00 | 0.00 | 40 | 1003.4 |
| 20260505013102 | 55 | 147 | 1.7 | 6.1 | 0.00 | 0.00 | 0.00 | 40 | 1003.4 |
| 20260505011551 | 57 | 153 | 1.7 | 6.1 | 0.00 | 0.00 | 0.00 | 35 | 1003.4 |
| 20260505010058 | 57 | 82 | 0.9 | 7.8 | 0.00 | 0.00 | 0.00 | 31 | 1003.3 |
| 20260505004539 | 58 | 164 | 2.6 | 7.8 | 0.00 | 0.00 | 0.00 | 29 | 1003.0 |
| 20260505003035 | 58 | 355 | 0.9 | 4.3 | 0.00 | 0.00 | 0.00 | 29 | 1002.9 |
| 20260505001532 | 58 | 346 | 1.7 | 4.3 | 0.00 | 0.00 | 0.00 | 28 | 1002.7 |
| 20260505000026 | 59 | 326 | 5.2 | 11.3 | 0.00 | 0.00 | 0.00 | 26 | 1002.6 |
| 20260504234522 | 61 | 299 | 1.7 | 8.7 | 0.00 | 0.00 | 0.00 | 22 | 1002.5 |
| 20260504233018 | 61 | 206 | 0.9 | 7.0 | 0.00 | 0.00 | 0.00 | 21 | 1002.3 |
| 20260504231513 | 62 | 211 | 7.0 | 13.9 | 0.00 | 0.00 | 0.00 | 21 | 1001.9 |
| 20260504230012 | 63 | 199 | 2.6 | 6.1 | 0.00 | 0.00 | 0.00 | 19 | 1001.1 |
| 20260504224511 | 66 | 187 | 2.6 | 9.6 | 0.00 | 0.00 | 0.00 | 16 | 1000.9 |
| 20260504223009 | 67 | 165 | 0.9 | 5.2 | 0.00 | 0.00 | 0.00 | 12 | 1000.8 |
| 20260504221504 | 68 | 192 | 0.9 | 4.3 | 0.00 | 0.00 | 0.00 | 12 | 1000.7 |
| 20260504220100 | 69 | 116 | 0.9 | 3.5 | 0.00 | 0.00 | 0.00 | 12 | 1000.6 |
| 20260504214557 | 69 | 133 | 1.7 | 7.0 | 0.00 | 0.00 | 0.00 | 11 | 1000.7 |
| 20260504213052 | 70 | 156 | 0.9 | 5.2 | 0.00 | 0.00 | 0.00 | 12 | 1000.8 |
| 20260504211546 | 70 | 174 | 1.7 | 6.1 | 0.00 | 0.00 | 0.00 | 13 | 1000.9 |
| 20260504210045 | 70 | 163 | 1.7 | 7.0 | 0.00 | 0.00 | 0.00 | 11 | 1001.1 |
| 20260504204546 | 70 | 184 | 1.7 | 5.2 | 0.00 | 0.00 | 0.00 | 13 | 1001.0 |
| 20260504203050 | 69 | 217 | 0.9 | 4.3 | 0.00 | 0.00 | 0.00 | 14 | 1001.3 |
| 20260504201533 | 69 | 158 | 1.7 | 7.8 | 0.00 | 0.00 | 0.00 | 11 | 1001.5 |
| 20260504200028 | 69 | 150 | 2.6 | 7.8 | 0.00 | 0.00 | 0.00 | 12 | 1001.4 |
| 20260504194522 | 69 | 192 | 1.7 | 6.1 | 0.00 | 0.00 | 0.00 | 11 | 1001.5 |
| 20260504193019 | 69 | 125 | 1.7 | 7.0 | 0.00 | 0.00 | 0.00 | 12 | 1001.6 |
| 20260504191522 | 68 | 188 | 1.7 | 7.8 | 0.00 | 0.00 | 0.00 | 13 | 1001.3 |
| 20260504190009 | 69 | 105 | 2.6 | 9.6 | 0.00 | 0.00 | 0.00 | 11 | 1001.3 |
| 20260504184504 | 71 | 149 | 0.9 | 6.1 | 0.00 | 0.00 | 0.00 | 8 | 1001.2 |
| 20260504183100 | 74 | 147 | 0.9 | 3.5 | 0.00 | 0.00 | 0.00 | 4 | 1001.4 |
| 20260504181557 | 76 | 103 | 0.9 | 6.1 | 0.00 | 0.00 | 0.00 | 5 | 1001.6 |
| 20260504180051 | 75 | 92 | 0.9 | 7.8 | 0.00 | 0.00 | 0.00 | 8 | 1001.9 |
| 20260504174546 | 74 | 338 | 3.5 | 7.0 | 0.00 | 0.00 | 0.00 | 7 | 1002.1 |
| 20260504173044 | 74 | 68 | 2.6 | 6.1 | 0.00 | 0.00 | 0.00 | 7 | 1002.4 |
| 20260504171540 | 73 | 26 | 0.9 | 7.8 | 0.00 | 0.00 | 0.00 | 9 | 1002.7 |